createdAt,value
2023-04-04T00:01:01.103Z,2.10
2023-04-04T00:06:04.079Z,1.92
2023-04-04T00:11:07.207Z,2.22
2023-04-04T00:16:10.413Z,1.70
2023-04-04T00:21:13.140Z,1.73
2023-04-04T00:26:17.591Z,2.10
2023-04-04T00:31:21.488Z,2.03
2023-04-04T00:36:24.458Z,1.92
2023-04-04T00:41:27.249Z,1.42
2023-04-04T00:46:30.125Z,2.00
2023-04-04T00:51:32.770Z,2.13
2023-04-04T00:56:39.872Z,1.08
2023-04-04T01:01:42.612Z,1.60
2023-04-04T01:06:46.174Z,2.53
2023-04-04T01:11:49.085Z,2.20
2023-04-04T01:16:52.481Z,2.20
2023-04-04T01:21:57.533Z,1.92
2023-04-04T01:27:01.017Z,2.08
2023-04-04T01:32:47.718Z,1.58
2023-04-04T01:37:58.661Z,1.58
2023-04-04T01:43:02.785Z,1.93
2023-04-04T01:48:08.463Z,1.90
2023-04-04T01:53:11.465Z,1.25
2023-04-04T01:58:14.825Z,1.80
2023-04-04T02:03:17.823Z,1.90
2023-04-04T02:08:20.905Z,2.10
2023-04-04T02:13:29.161Z,2.00
2023-04-04T02:18:34.794Z,1.92
2023-04-04T02:23:39.171Z,1.85
2023-04-04T02:28:41.842Z,1.98
2023-04-04T02:33:46.534Z,1.77
2023-04-04T02:38:51.456Z,1.90
2023-04-04T02:43:56.352Z,2.53
2023-04-04T02:48:59.427Z,2.38
2023-04-04T02:54:03.360Z,1.55
2023-04-04T02:59:13.177Z,2.50
2023-04-04T03:04:16.009Z,2.30
2023-04-04T03:09:18.984Z,1.70
2023-04-04T03:14:21.949Z,2.03
2023-04-04T03:19:25.156Z,2.20
2023-04-04T03:24:29.492Z,2.40
2023-04-04T03:29:32.638Z,2.22
2023-04-04T03:34:36.308Z,1.60
2023-04-04T03:39:39.062Z,2.35
2023-04-04T03:44:42.303Z,2.53
2023-04-04T03:49:52.973Z,2.00
2023-04-04T03:54:55.629Z,2.42
2023-04-04T03:59:58.361Z,2.10
2023-04-04T04:05:01.536Z,2.35
2023-04-04T04:10:05.667Z,1.98
2023-04-04T04:15:09.673Z,1.47
2023-04-04T04:20:13.652Z,2.90
2023-04-04T04:25:24.057Z,1.92
2023-04-04T04:30:46.678Z,2.08
2023-04-04T04:35:53.486Z,0.55
2023-04-04T04:40:58.947Z,1.70
2023-04-04T04:46:11.773Z,1.80
2023-04-04T04:51:15.487Z,1.48
2023-04-04T04:56:23.738Z,2.20
2023-04-04T05:01:30.038Z,2.90
2023-04-04T05:06:33.905Z,1.77
2023-04-04T05:11:37.100Z,2.35
2023-04-04T05:16:43.046Z,2.78
2023-04-04T05:21:46.816Z,1.88
2023-04-04T05:27:01.679Z,2.40
2023-04-04T05:32:10.458Z,2.20
2023-04-04T05:37:15.158Z,2.05
2023-04-04T05:42:22.895Z,2.60
2023-04-04T05:47:30.023Z,1.95
2023-04-04T05:52:33.452Z,1.70
2023-04-04T05:57:38.344Z,2.47
2023-04-04T06:02:41.194Z,2.03
2023-04-04T06:07:50.186Z,2.17
2023-04-04T06:12:53.058Z,2.80
2023-04-04T06:17:56.125Z,2.40
2023-04-04T06:23:02.316Z,2.63
2023-04-04T06:28:05.557Z,2.63
2023-04-04T06:33:08.547Z,2.08
2023-04-04T06:38:17.042Z,2.55
2023-04-04T06:43:20.965Z,1.17
2023-04-04T06:48:24.151Z,2.40
2023-04-04T06:53:27.065Z,2.53
2023-04-04T06:58:29.864Z,2.05
2023-04-04T07:03:32.631Z,2.10
2023-04-04T07:08:36.773Z,2.80
2023-04-04T07:13:39.929Z,2.07
2023-04-04T07:18:42.918Z,2.45
2023-04-04T07:23:45.520Z,2.70
2023-04-04T07:28:48.222Z,3.13
2023-04-04T07:33:54.950Z,2.22
2023-04-04T07:38:58.325Z,2.90
2023-04-04T07:44:01.048Z,2.40
2023-04-04T07:49:03.971Z,2.30
2023-04-04T07:54:07.057Z,2.40
2023-04-04T07:59:09.811Z,2.63
2023-04-04T08:04:12.628Z,3.03
2023-04-04T08:09:15.621Z,2.35
2023-04-04T08:14:18.463Z,2.90
2023-04-04T08:19:21.458Z,2.35
2023-04-04T08:24:25.569Z,2.17
2023-04-04T08:29:32.139Z,2.33
2023-04-04T08:34:34.981Z,2.40
2023-04-04T08:39:38.408Z,2.03
2023-04-04T08:44:44.213Z,2.25
2023-04-04T08:49:48.822Z,2.78
2023-04-04T08:54:52.902Z,1.90
2023-04-04T08:59:55.833Z,1.42
2023-04-04T09:05:06.158Z,2.45
2023-04-04T09:10:14.530Z,2.15
2023-04-04T09:15:17.664Z,2.22
2023-04-04T09:20:43.805Z,1.37
2023-04-04T09:30:54.870Z,1.70
2023-04-04T09:36:11.942Z,0.90
2023-04-04T09:41:16.148Z,1.90
2023-04-04T09:46:21.735Z,2.43
2023-04-04T09:51:24.622Z,1.67
2023-04-04T09:56:28.221Z,1.95
2023-04-04T10:01:31.147Z,1.60
2023-04-04T10:06:36.924Z,1.60
2023-04-04T10:11:39.971Z,2.23
2023-04-04T10:16:45.945Z,1.80
2023-04-04T10:21:49.306Z,1.85
2023-04-04T10:26:53.708Z,1.77
2023-04-04T10:32:22.071Z,1.27
2023-04-04T10:37:29.878Z,1.67
2023-04-04T10:42:39.053Z,1.60
2023-04-04T10:47:43.084Z,1.70
2023-04-04T10:52:46.705Z,1.42
2023-04-04T10:57:53.001Z,1.60
2023-04-04T11:03:02.939Z,1.87
2023-04-04T11:08:11.093Z,1.50
2023-04-04T11:13:26.785Z,2.33
2023-04-04T11:18:34.180Z,1.80
2023-04-04T11:23:49.586Z,1.88
2023-04-04T11:28:52.489Z,2.07
2023-04-04T11:33:56.569Z,1.83
2023-04-04T11:39:00.189Z,2.10
2023-04-04T11:44:12.290Z,2.00
2023-04-04T11:49:16.269Z,2.20
2023-04-04T11:54:19.094Z,2.07
2023-04-04T11:59:23.340Z,2.25
2023-04-04T12:04:26.903Z,1.83
2023-04-04T12:09:30.904Z,2.10
2023-04-04T12:14:34.656Z,1.60
2023-04-04T12:19:39.180Z,2.07
2023-04-04T12:24:42.377Z,1.85
2023-04-04T12:29:47.813Z,2.20
2023-04-04T12:34:51.036Z,2.70
2023-04-04T12:39:55.133Z,2.30
2023-04-04T12:44:59.026Z,2.30
2023-04-04T12:50:02.263Z,2.17
2023-04-04T12:55:12.980Z,2.00
2023-04-04T13:00:17.016Z,2.17
2023-04-04T13:05:22.291Z,1.80
2023-04-04T13:10:25.133Z,1.57
2023-04-04T13:15:50.973Z,1.77
2023-04-04T13:20:55.197Z,1.90
2023-04-04T13:26:00.132Z,1.98
2023-04-04T13:31:07.060Z,2.10
2023-04-04T13:36:09.906Z,1.90
2023-04-04T13:41:12.879Z,2.20
2023-04-04T13:46:15.776Z,1.88
2023-04-04T13:51:18.560Z,2.22
2023-04-04T13:56:22.468Z,2.20
2023-04-04T14:01:25.626Z,2.20
2023-04-04T14:06:28.703Z,1.75
2023-04-04T14:11:31.591Z,1.70
2023-04-04T14:16:34.492Z,2.35
2023-04-04T14:21:37.288Z,2.30
2023-04-04T14:26:40.046Z,2.03
2023-04-04T14:31:43.009Z,2.20
2023-04-04T14:36:45.955Z,2.30
2023-04-04T14:41:48.900Z,2.38
2023-04-04T14:46:55.659Z,2.33
2023-04-04T14:51:58.463Z,2.23
2023-04-04T14:57:02.441Z,3.30
2023-04-04T15:02:05.221Z,2.33
2023-04-04T15:07:08.498Z,2.50
2023-04-04T15:12:11.224Z,2.95
2023-04-04T15:17:14.019Z,2.67
2023-04-04T15:22:16.723Z,3.05
2023-04-04T15:27:19.399Z,2.78
2023-04-04T15:32:22.266Z,2.95
2023-04-04T15:37:25.562Z,2.20
2023-04-04T15:42:28.798Z,2.70
2023-04-04T15:47:31.938Z,3.17
2023-04-04T15:52:35.078Z,1.90
2023-04-04T15:57:37.844Z,2.75
2023-04-04T16:02:41.239Z,2.17
2023-04-04T16:07:44.097Z,1.37
2023-04-04T16:12:46.783Z,2.72
2023-04-04T16:17:49.755Z,3.17
2023-04-04T16:22:54.055Z,2.53
2023-04-04T16:27:58.150Z,2.38
2023-04-04T16:33:01.081Z,2.43
2023-04-04T16:38:03.917Z,3.17
2023-04-04T16:43:06.815Z,2.55
2023-04-04T16:48:09.801Z,2.20
2023-04-04T16:53:12.579Z,2.50
2023-04-04T16:58:15.400Z,2.87
2023-04-04T17:03:18.212Z,0.82
2023-04-04T17:08:20.900Z,2.75
2023-04-04T17:13:23.734Z,2.28
2023-04-04T17:18:26.879Z,1.48
2023-04-04T17:23:29.549Z,2.03
2023-04-04T17:28:32.224Z,2.30
2023-04-04T17:33:34.860Z,2.60
2023-04-04T17:38:39.475Z,2.45
2023-04-04T17:43:42.206Z,2.85
2023-04-04T17:48:45.001Z,2.37
2023-04-04T17:53:48.151Z,2.85
2023-04-04T17:58:52.004Z,2.33
2023-04-04T18:03:56.078Z,2.95
2023-04-04T18:08:59.120Z,2.65
2023-04-04T18:14:02.427Z,2.87
2023-04-04T18:19:05.078Z,2.33
2023-04-04T18:24:11.362Z,3.42
2023-04-04T18:29:15.497Z,3.33
2023-04-04T18:34:18.803Z,2.45
2023-04-04T18:39:21.616Z,3.37
2023-04-04T18:44:24.415Z,3.60
2023-04-04T18:49:27.562Z,4.15
2023-04-04T18:54:30.798Z,5.18
2023-04-04T18:59:33.604Z,3.70
2023-04-04T19:04:36.655Z,2.70
2023-04-04T19:09:41.366Z,3.17
2023-04-04T19:14:44.319Z,2.80
2023-04-04T19:19:47.628Z,5.22
2023-04-04T19:24:50.469Z,3.85
2023-04-04T19:29:55.201Z,4.13
2023-04-04T19:34:58.268Z,6.25
2023-04-04T19:40:01.125Z,5.25
2023-04-04T19:45:13.105Z,5.75
2023-04-04T19:50:36.167Z,4.35
2023-04-04T19:55:40.795Z,5.57
2023-04-04T20:00:45.616Z,5.45
2023-04-04T20:05:48.260Z,6.25
2023-04-04T20:10:54.888Z,4.78
2023-04-04T20:16:01.734Z,6.25
2023-04-04T20:21:25.272Z,5.37
2023-04-04T20:26:51.514Z,5.97
2023-04-04T20:31:54.374Z,5.15
2023-04-04T20:36:57.180Z,6.18
2023-04-04T20:42:00.230Z,4.68
2023-04-04T20:47:03.037Z,6.00
2023-04-04T20:52:07.830Z,4.40
2023-04-04T20:57:14.656Z,3.92
2023-04-04T21:02:20.873Z,6.47
2023-04-04T21:07:42.612Z,4.32
2023-04-04T21:12:45.333Z,2.63
2023-04-04T21:17:48.218Z,2.60
2023-04-04T21:22:51.840Z,4.32
2023-04-04T21:27:56.298Z,2.92
2023-04-04T21:32:59.124Z,2.80
2023-04-04T21:38:01.830Z,3.40
2023-04-04T21:43:04.458Z,2.22
2023-04-04T21:48:07.355Z,4.60
2023-04-04T21:53:10.095Z,4.32
2023-04-04T21:58:13.654Z,3.65
2023-04-04T22:03:17.046Z,3.70
2023-04-04T22:08:20.061Z,3.88
2023-04-04T22:13:22.852Z,3.75
2023-04-04T22:18:33.457Z,4.07
2023-04-04T22:23:36.213Z,3.75
2023-04-04T22:28:39.136Z,4.00
2023-04-04T22:33:41.833Z,4.43
2023-04-04T22:38:44.644Z,3.10
2023-04-04T22:43:47.347Z,3.75
2023-04-04T22:48:50.201Z,4.38
2023-04-04T22:53:58.157Z,3.27
2023-04-04T22:59:01.432Z,3.30
2023-04-04T23:04:04.091Z,3.05
2023-04-04T23:09:08.264Z,3.33
2023-04-04T23:14:15.280Z,2.92
2023-04-04T23:19:18.169Z,3.20
2023-04-04T23:24:21.462Z,3.17
2023-04-04T23:29:24.187Z,3.28
2023-04-04T23:34:26.836Z,4.10
2023-04-04T23:39:30.041Z,2.65
2023-04-04T23:44:32.660Z,3.83
2023-04-04T23:49:35.363Z,2.75
2023-04-04T23:54:37.941Z,3.20
2023-04-04T23:59:42.112Z,3.30
